createdAt,value
2019-03-20T00:00:15.339Z,57.80
2019-03-20T00:02:44.187Z,57.80
2019-03-20T00:05:12.949Z,57.70
2019-03-20T00:07:41.710Z,57.80
2019-03-20T00:10:11.375Z,57.80
2019-03-20T00:12:40.182Z,57.80
2019-03-20T00:15:10.427Z,57.80
2019-03-20T00:17:39.203Z,57.80
2019-03-20T00:20:08.962Z,57.80
2019-03-20T00:22:37.799Z,57.80
2019-03-20T00:25:06.901Z,57.90
2019-03-20T00:27:35.661Z,58.00
2019-03-20T00:30:04.840Z,57.90
2019-03-20T00:32:33.599Z,57.90
2019-03-20T00:35:02.338Z,57.90
2019-03-20T00:37:31.126Z,57.90
2019-03-20T00:39:59.867Z,58.00
2019-03-20T00:42:28.693Z,58.00
2019-03-20T00:44:57.455Z,58.00
2019-03-20T00:47:26.291Z,58.00
2019-03-20T00:49:55.147Z,58.00
2019-03-20T00:52:23.969Z,58.00
2019-03-20T00:54:52.731Z,58.00
2019-03-20T00:57:21.467Z,57.80
2019-03-20T00:59:50.255Z,57.80
2019-03-20T01:02:19.003Z,57.60
2019-03-20T01:04:47.737Z,57.60
2019-03-20T01:07:16.485Z,57.70
2019-03-20T01:09:45.304Z,57.70
2019-03-20T01:12:14.087Z,57.70
2019-03-20T01:14:42.829Z,57.70
2019-03-20T01:17:11.615Z,57.70
2019-03-20T01:19:40.379Z,57.80
2019-03-20T01:22:09.122Z,57.80
2019-03-20T01:24:37.991Z,57.80
2019-03-20T01:27:06.813Z,57.80
2019-03-20T01:29:35.557Z,57.90
2019-03-20T01:32:04.313Z,57.80
2019-03-20T01:34:33.081Z,57.80
2019-03-20T01:37:01.821Z,57.90
2019-03-20T01:39:30.588Z,57.90
2019-03-20T01:41:59.315Z,57.90
2019-03-20T01:44:28.168Z,57.90
2019-03-20T01:46:56.891Z,57.90
2019-03-20T01:49:25.720Z,57.80
2019-03-20T01:51:54.483Z,58.00
2019-03-20T01:54:23.229Z,58.00
2019-03-20T01:56:52.006Z,58.00
2019-03-20T01:59:20.827Z,57.80
2019-03-20T02:01:49.573Z,57.60
2019-03-20T02:04:18.313Z,57.50
2019-03-20T02:06:47.071Z,57.50
2019-03-20T02:09:15.831Z,57.50
2019-03-20T02:11:44.567Z,57.60
2019-03-20T02:14:13.307Z,57.60
2019-03-20T02:16:42.035Z,57.60
2019-03-20T02:19:10.883Z,57.60
2019-03-20T02:21:39.685Z,57.60
2019-03-20T02:24:08.477Z,57.60
2019-03-20T02:26:37.215Z,57.70
2019-03-20T02:29:06.061Z,57.80
2019-03-20T02:31:34.900Z,57.70
2019-03-20T02:34:03.704Z,57.70
2019-03-20T02:36:32.454Z,57.70
2019-03-20T02:39:01.214Z,57.70
2019-03-20T02:41:29.969Z,57.70
2019-03-20T02:43:58.694Z,57.80
2019-03-20T02:46:27.467Z,57.80
2019-03-20T02:48:56.239Z,57.80
2019-03-20T02:51:25.187Z,57.80
2019-03-20T02:53:53.936Z,57.90
2019-03-20T02:56:22.691Z,57.80
2019-03-20T02:58:51.510Z,57.70
2019-03-20T03:01:20.348Z,57.50
2019-03-20T03:03:49.159Z,57.50
2019-03-20T03:06:17.924Z,57.50
2019-03-20T03:08:46.675Z,57.50
2019-03-20T03:11:15.412Z,57.60
2019-03-20T03:13:44.199Z,57.60
2019-03-20T03:16:12.915Z,57.60
2019-03-20T03:18:41.658Z,57.60
2019-03-20T03:21:10.467Z,57.60
2019-03-20T03:23:39.205Z,57.60
2019-03-20T03:26:07.990Z,57.70
2019-03-20T03:28:36.883Z,57.70
2019-03-20T03:31:05.637Z,57.70
2019-03-20T03:33:34.452Z,57.70
2019-03-20T03:36:03.222Z,57.80
2019-03-20T03:38:31.956Z,57.80
2019-03-20T03:41:00.713Z,57.60
2019-03-20T03:43:29.459Z,57.40
2019-03-20T03:45:58.213Z,57.40
2019-03-20T03:48:26.963Z,57.50
2019-03-20T03:50:55.708Z,57.50
2019-03-20T03:53:24.526Z,57.60
2019-03-20T03:55:53.275Z,57.40
2019-03-20T03:58:22.064Z,57.40
2019-03-20T04:00:50.816Z,57.50
2019-03-20T04:03:19.630Z,57.50
2019-03-20T04:05:48.468Z,57.60
2019-03-20T04:08:17.295Z,57.60
2019-03-20T04:10:46.074Z,57.60
2019-03-20T04:13:14.812Z,57.60
2019-03-20T04:15:43.707Z,57.60
2019-03-20T04:18:12.544Z,57.60
2019-03-20T04:20:41.393Z,57.70
2019-03-20T04:23:10.146Z,57.70
2019-03-20T04:25:38.973Z,57.70
2019-03-20T04:28:07.707Z,57.70
2019-03-20T04:30:36.448Z,57.60
2019-03-20T04:33:05.230Z,57.60
2019-03-20T04:35:33.969Z,57.70
2019-03-20T04:38:02.732Z,57.80
2019-03-20T04:40:31.551Z,57.60
2019-03-20T04:43:00.480Z,57.40
2019-03-20T04:45:29.226Z,57.40
2019-03-20T04:47:57.975Z,57.30
2019-03-20T04:50:26.712Z,57.40
2019-03-20T04:52:55.484Z,57.40
2019-03-20T04:55:24.240Z,57.40
2019-03-20T04:57:52.970Z,57.40
2019-03-20T05:00:21.784Z,57.40
2019-03-20T05:02:50.518Z,57.50
2019-03-20T05:05:19.280Z,58.20
2019-03-20T05:07:48.169Z,57.50
2019-03-20T05:10:17.813Z,57.30
2019-03-20T05:12:46.591Z,58.10
2019-03-20T05:15:15.336Z,57.40
2019-03-20T05:17:44.114Z,57.50
2019-03-20T05:20:13.262Z,57.50
2019-03-20T05:22:42.014Z,57.40
2019-03-20T05:25:10.752Z,57.40
2019-03-20T05:27:39.594Z,57.40
2019-03-20T05:30:08.971Z,57.50
2019-03-20T05:32:39.380Z,57.50
2019-03-20T05:35:08.247Z,57.50
2019-03-20T05:37:37.058Z,57.50
2019-03-20T05:40:05.897Z,57.50
2019-03-20T05:42:34.706Z,57.40
2019-03-20T05:45:03.431Z,57.30
2019-03-20T05:47:32.193Z,57.20
2019-03-20T05:50:00.925Z,57.20
2019-03-20T05:52:29.672Z,57.30
2019-03-20T05:54:58.437Z,57.20
2019-03-20T05:57:27.181Z,57.20
2019-03-20T05:59:55.918Z,57.30
2019-03-20T06:02:25.791Z,57.30
2019-03-20T06:04:54.705Z,57.40
2019-03-20T06:07:23.434Z,57.30
2019-03-20T06:09:52.301Z,57.30
2019-03-20T06:12:21.049Z,57.40
2019-03-20T06:14:49.806Z,57.40
2019-03-20T06:17:18.641Z,57.30
2019-03-20T06:19:47.383Z,57.40
2019-03-20T06:22:16.127Z,57.40
2019-03-20T06:24:44.877Z,57.40
2019-03-20T06:27:13.697Z,57.40
2019-03-20T06:29:42.514Z,57.50
2019-03-20T06:32:11.297Z,57.50
2019-03-20T06:34:40.144Z,57.50
2019-03-20T06:37:08.881Z,57.40
2019-03-20T06:39:37.714Z,57.40
2019-03-20T06:42:06.483Z,57.50
2019-03-20T06:44:35.227Z,57.30
2019-03-20T06:47:04.031Z,57.20
2019-03-20T06:49:32.841Z,57.20
2019-03-20T06:52:01.743Z,57.10
2019-03-20T06:54:30.643Z,57.30
2019-03-20T06:56:59.607Z,57.20
2019-03-20T07:00:10.478Z,57.10
2019-03-20T07:02:42.462Z,57.30
2019-03-20T07:05:33.349Z,57.30
2019-03-20T07:08:02.159Z,57.40
2019-03-20T07:11:04.923Z,57.40
2019-03-20T07:13:33.729Z,57.50
2019-03-20T07:16:02.487Z,57.50
2019-03-20T07:18:31.308Z,57.40
2019-03-20T07:21:00.071Z,57.50
2019-03-20T07:23:28.810Z,57.50
2019-03-20T07:25:57.639Z,57.60
2019-03-20T07:28:26.385Z,57.60
2019-03-20T07:30:55.165Z,57.60
2019-03-20T07:33:24.009Z,57.50
2019-03-20T07:35:52.833Z,57.60
2019-03-20T07:38:21.777Z,57.40
2019-03-20T07:40:50.603Z,57.50
2019-03-20T07:43:19.429Z,57.60
2019-03-20T07:45:48.177Z,57.40
2019-03-20T07:48:22.095Z,57.20
2019-03-20T07:50:47.367Z,57.20
2019-03-20T07:53:16.119Z,57.20
2019-03-20T07:55:44.887Z,57.20
2019-03-20T07:58:13.614Z,57.20
2019-03-20T08:00:42.379Z,57.10
2019-03-20T08:03:11.139Z,57.20
2019-03-20T08:05:39.912Z,57.30
2019-03-20T08:08:08.663Z,57.40
2019-03-20T08:10:37.700Z,57.40
2019-03-20T08:13:06.443Z,57.50
2019-03-20T08:15:35.291Z,57.60
2019-03-20T08:18:04.163Z,57.40
2019-03-20T08:20:33.011Z,57.50
2019-03-20T08:23:01.798Z,57.50
2019-03-20T08:25:30.550Z,57.30
2019-03-20T08:27:59.303Z,57.30
2019-03-20T08:30:28.067Z,57.30
2019-03-20T08:32:56.809Z,57.30
2019-03-20T08:35:25.675Z,57.40
2019-03-20T08:37:54.469Z,57.40
2019-03-20T08:40:23.219Z,57.30
2019-03-20T08:42:51.988Z,57.40
2019-03-20T08:45:20.827Z,57.50
2019-03-20T08:47:49.710Z,57.60
2019-03-20T08:50:19.087Z,57.60
2019-03-20T08:52:47.914Z,57.70
2019-03-20T08:55:16.806Z,57.70
2019-03-20T08:57:45.663Z,57.70
2019-03-20T09:00:16.435Z,57.60
2019-03-20T09:02:45.311Z,57.70
2019-03-20T09:05:14.109Z,57.60
2019-03-20T09:07:47.146Z,57.40
2019-03-20T09:10:15.703Z,57.40
2019-03-20T09:12:44.461Z,57.40
2019-03-20T09:15:13.970Z,57.50
2019-03-20T09:17:42.836Z,57.50
2019-03-20T09:20:13.151Z,57.50
2019-03-20T09:22:41.971Z,57.60
2019-03-20T09:25:12.787Z,57.70
2019-03-20T09:27:41.554Z,57.60
2019-03-20T09:30:13.452Z,57.70
2019-03-20T09:32:42.291Z,57.70
2019-03-20T09:35:11.066Z,57.80
2019-03-20T09:37:50.969Z,57.70
2019-03-20T09:40:11.969Z,57.60
2019-03-20T09:42:40.795Z,57.70
2019-03-20T09:45:11.348Z,57.70
2019-03-20T09:47:40.100Z,57.60
2019-03-20T09:50:11.064Z,57.70
2019-03-20T09:52:39.928Z,57.70
2019-03-20T09:55:09.201Z,57.70
2019-03-20T09:57:38.037Z,57.70
2019-03-20T10:00:11.046Z,57.70
2019-03-20T10:02:39.860Z,57.70
2019-03-20T10:05:08.737Z,57.80
2019-03-20T10:07:37.474Z,57.80
2019-03-20T10:10:07.234Z,57.90
2019-03-20T10:12:36.178Z,57.80
2019-03-20T10:15:06.908Z,57.80
2019-03-20T10:17:35.659Z,57.80
2019-03-20T10:20:05.119Z,57.80
2019-03-20T10:22:33.884Z,57.80
2019-03-20T10:25:02.643Z,57.70
2019-03-20T10:27:31.474Z,57.70
2019-03-20T10:30:00.393Z,57.50
2019-03-20T10:32:29.155Z,57.40
2019-03-20T10:34:57.930Z,57.40
2019-03-20T10:37:26.688Z,57.50
2019-03-20T10:39:55.449Z,57.60
2019-03-20T10:42:24.200Z,57.50
2019-03-20T10:44:52.948Z,57.60
2019-03-20T10:47:21.702Z,57.70
2019-03-20T10:49:50.472Z,57.70
2019-03-20T10:52:19.244Z,57.80
2019-03-20T10:54:48.012Z,57.80
2019-03-20T10:57:16.764Z,57.90
2019-03-20T10:59:45.646Z,57.90
2019-03-20T11:02:14.404Z,57.90
2019-03-20T11:04:43.199Z,57.80
2019-03-20T11:07:12.068Z,58.00
2019-03-20T11:09:40.904Z,58.00
2019-03-20T11:12:09.648Z,58.00
2019-03-20T11:14:38.418Z,58.00
2019-03-20T11:17:07.174Z,58.10
2019-03-20T11:19:35.908Z,58.00
2019-03-20T11:22:04.689Z,58.00
2019-03-20T11:24:33.565Z,57.80
2019-03-20T11:27:02.433Z,57.70
2019-03-20T11:29:31.244Z,57.60
2019-03-20T11:31:59.987Z,57.80
2019-03-20T11:34:28.776Z,57.80
2019-03-20T11:36:57.533Z,57.80
2019-03-20T11:39:29.969Z,57.80
2019-03-20T11:41:56.758Z,57.80
2019-03-20T11:44:25.592Z,57.90
2019-03-20T11:46:54.454Z,57.90
2019-03-20T11:49:23.207Z,57.60
2019-03-20T11:51:52.043Z,58.00
2019-03-20T11:54:20.914Z,58.00
2019-03-20T11:56:49.651Z,58.00
2019-03-20T11:59:18.433Z,58.00
2019-03-20T12:01:47.218Z,57.90
2019-03-20T12:04:16.065Z,57.70
2019-03-20T12:06:44.824Z,57.80
2019-03-20T12:09:13.655Z,57.80
2019-03-20T12:11:46.049Z,57.60
2019-03-20T12:14:12.902Z,57.50
2019-03-20T12:16:41.644Z,57.30
2019-03-20T12:19:10.383Z,57.10
2019-03-20T12:21:39.128Z,56.80
2019-03-20T12:24:07.868Z,56.60
2019-03-20T12:26:36.688Z,56.40
2019-03-20T12:29:05.423Z,56.30
2019-03-20T12:31:34.261Z,56.30
2019-03-20T12:34:03.101Z,56.40
2019-03-20T12:36:31.952Z,56.70
2019-03-20T12:39:00.717Z,56.80
2019-03-20T12:41:29.486Z,56.90
2019-03-20T12:43:58.250Z,57.10
2019-03-20T12:46:40.700Z,57.10
2019-03-20T12:48:59.693Z,57.20
2019-03-20T12:51:28.010Z,57.30
2019-03-20T12:53:56.759Z,57.50
2019-03-20T12:56:25.511Z,57.60
2019-03-20T12:58:54.323Z,57.60
2019-03-20T13:01:23.082Z,57.60
2019-03-20T13:03:51.867Z,57.70
2019-03-20T13:06:20.746Z,57.70
2019-03-20T13:08:49.572Z,57.80
2019-03-20T13:11:18.324Z,57.90
2019-03-20T13:13:47.132Z,57.70
2019-03-20T13:16:15.887Z,57.80
2019-03-20T13:18:44.725Z,57.80
2019-03-20T13:21:13.576Z,57.70
2019-03-20T13:23:42.315Z,58.30
2019-03-20T13:26:11.245Z,57.70
2019-03-20T13:28:40.011Z,57.60
2019-03-20T13:31:12.395Z,57.70
2019-03-20T13:33:41.159Z,57.70
2019-03-20T13:36:09.942Z,57.80
2019-03-20T13:38:38.728Z,57.80
2019-03-20T13:41:07.472Z,57.90
2019-03-20T13:43:36.237Z,57.80
2019-03-20T13:46:05.019Z,57.90
2019-03-20T13:48:33.819Z,57.90
2019-03-20T13:51:02.583Z,57.80
2019-03-20T13:53:31.347Z,57.90
2019-03-20T13:56:00.171Z,58.20
2019-03-20T13:58:29.015Z,57.90
2019-03-20T14:00:57.841Z,57.90
2019-03-20T14:03:26.615Z,57.90
2019-03-20T14:05:55.467Z,57.90
2019-03-20T14:08:24.373Z,58.00
2019-03-20T14:10:53.129Z,58.00
2019-03-20T14:13:21.949Z,57.80
2019-03-20T14:15:50.692Z,57.80
2019-03-20T14:18:19.423Z,57.80
2019-03-20T14:20:48.256Z,57.80
2019-03-20T14:23:17.035Z,57.80
2019-03-20T14:25:45.795Z,57.70
2019-03-20T14:28:14.591Z,57.80
2019-03-20T14:30:43.334Z,57.80
2019-03-20T14:33:12.193Z,57.80
2019-03-20T14:35:41.044Z,57.90
2019-03-20T14:38:09.907Z,57.90
2019-03-20T14:40:38.753Z,57.90
2019-03-20T14:43:07.592Z,57.80
2019-03-20T14:45:36.536Z,57.80
2019-03-20T14:48:05.295Z,58.60
2019-03-20T14:50:36.257Z,57.90
2019-03-20T14:53:04.693Z,57.80
2019-03-20T14:55:33.517Z,57.70
2019-03-20T14:58:02.317Z,57.70
2019-03-20T15:00:31.147Z,57.80
2019-03-20T15:02:59.931Z,57.80
2019-03-20T15:05:28.761Z,58.40
2019-03-20T15:07:57.504Z,57.80
2019-03-20T15:10:26.318Z,57.80
2019-03-20T15:12:55.167Z,57.90
2019-03-20T15:16:03.266Z,57.90
2019-03-20T15:18:32.249Z,57.90
2019-03-20T15:21:01.085Z,57.90
2019-03-20T15:23:29.843Z,58.00
2019-03-20T15:25:58.686Z,58.00
2019-03-20T15:28:27.549Z,58.00
2019-03-20T15:30:56.349Z,57.90
2019-03-20T15:33:25.140Z,57.90
2019-03-20T15:35:54.086Z,57.80
2019-03-20T15:38:22.921Z,57.80
2019-03-20T15:40:56.176Z,57.90
2019-03-20T15:43:22.151Z,57.90
2019-03-20T15:45:50.906Z,57.90
2019-03-20T15:48:19.739Z,57.90
2019-03-20T15:50:48.624Z,57.90
2019-03-20T15:53:17.433Z,58.00
2019-03-20T15:55:46.213Z,58.00
2019-03-20T15:58:14.957Z,57.90
2019-03-20T16:00:43.725Z,58.00
2019-03-20T16:03:14.377Z,58.00
2019-03-20T16:05:43.133Z,58.00
2019-03-20T16:08:11.916Z,58.00
2019-03-20T16:10:40.815Z,57.90
2019-03-20T16:13:09.556Z,58.00
2019-03-20T16:15:38.299Z,58.00
2019-03-20T16:18:07.053Z,58.00
2019-03-20T16:20:35.811Z,58.00
2019-03-20T16:23:04.679Z,58.00
2019-03-20T16:25:33.622Z,58.00
2019-03-20T16:28:02.349Z,58.00
2019-03-20T16:30:31.251Z,57.90
2019-03-20T16:33:00.015Z,57.70
2019-03-20T16:35:28.769Z,57.90
2019-03-20T16:37:57.528Z,57.80
2019-03-20T16:40:26.266Z,57.80
2019-03-20T16:42:55.023Z,57.60
2019-03-20T16:45:28.191Z,57.70
2019-03-20T16:47:56.956Z,57.70
2019-03-20T16:50:25.704Z,57.70
2019-03-20T16:52:54.759Z,57.80
2019-03-20T16:55:23.520Z,57.80
2019-03-20T16:57:52.419Z,57.80
2019-03-20T17:00:23.162Z,57.80
2019-03-20T17:02:51.930Z,57.90
2019-03-20T17:05:20.682Z,57.90
2019-03-20T17:07:49.440Z,57.90
2019-03-20T17:10:20.834Z,57.90
2019-03-20T17:12:49.669Z,58.00
2019-03-20T17:15:20.510Z,58.00
2019-03-20T17:17:49.337Z,58.00
2019-03-20T17:20:18.266Z,58.10
2019-03-20T17:22:47.138Z,58.10
2019-03-20T17:25:15.909Z,58.10
2019-03-20T17:27:44.667Z,58.10
2019-03-20T17:30:18.898Z,58.00
2019-03-20T17:32:47.650Z,58.00
2019-03-20T17:35:16.520Z,58.10
2019-03-20T17:37:45.748Z,57.90
2019-03-20T17:40:15.722Z,57.80
2019-03-20T17:42:44.629Z,57.80
2019-03-20T17:45:14.379Z,57.70
2019-03-20T17:47:43.160Z,57.70
2019-03-20T17:50:14.936Z,57.50
2019-03-20T17:52:45.206Z,57.50
2019-03-20T17:55:14.168Z,57.50
2019-03-20T17:57:42.944Z,57.50
2019-03-20T18:00:15.474Z,57.50
2019-03-20T18:02:44.226Z,57.50
2019-03-20T18:05:13.287Z,57.50
2019-03-20T18:07:42.046Z,57.40
2019-03-20T18:10:10.805Z,57.30
2019-03-20T18:12:39.613Z,57.20
2019-03-20T18:15:10.035Z,57.20
2019-03-20T18:17:38.999Z,57.30
2019-03-20T18:20:09.264Z,57.30
2019-03-20T18:22:38.140Z,57.20
2019-03-20T18:25:07.612Z,57.10
2019-03-20T18:27:36.371Z,57.20
2019-03-20T18:30:08.140Z,57.10
2019-03-20T18:32:36.906Z,57.00
2019-03-20T18:35:05.877Z,57.10
2019-03-20T18:37:34.772Z,57.00
2019-03-20T18:40:03.566Z,56.90
2019-03-20T18:42:32.610Z,57.00
2019-03-20T18:45:01.477Z,57.00
2019-03-20T18:47:30.397Z,57.00
2019-03-20T18:49:59.169Z,57.00
2019-03-20T18:52:28.014Z,56.90
2019-03-20T18:54:56.992Z,56.90
2019-03-20T18:57:25.757Z,57.00
2019-03-20T18:59:54.555Z,57.10
2019-03-20T19:02:23.382Z,57.20
2019-03-20T19:04:52.142Z,57.10
2019-03-20T19:07:20.977Z,57.10
2019-03-20T19:09:49.852Z,57.10
2019-03-20T19:12:18.676Z,57.10
2019-03-20T19:14:47.531Z,56.90
2019-03-20T19:17:16.374Z,57.00
2019-03-20T19:19:45.222Z,56.90
2019-03-20T19:22:13.954Z,56.90
2019-03-20T19:24:42.784Z,57.00
2019-03-20T19:27:11.642Z,57.00
2019-03-20T19:29:40.545Z,57.10
2019-03-20T19:32:09.360Z,57.00
2019-03-20T19:34:38.089Z,57.00
2019-03-20T19:37:06.851Z,57.00
2019-03-20T19:39:35.628Z,57.00
2019-03-20T19:42:04.394Z,56.90
2019-03-20T19:44:33.497Z,56.90
2019-03-20T19:47:02.345Z,56.90
2019-03-20T19:49:31.161Z,56.90
2019-03-20T19:51:59.930Z,57.00
2019-03-20T19:54:29.786Z,57.00
2019-03-20T19:56:58.614Z,57.00
2019-03-20T19:59:27.388Z,57.00
2019-03-20T20:01:56.151Z,57.10
2019-03-20T20:04:24.932Z,57.10
2019-03-20T20:06:53.699Z,57.10
2019-03-20T20:09:22.542Z,57.10
2019-03-20T20:11:51.398Z,57.20
2019-03-20T20:14:20.242Z,57.10
2019-03-20T20:16:49.092Z,57.20
2019-03-20T20:19:17.852Z,57.10
2019-03-20T20:21:46.691Z,57.20
2019-03-20T20:24:15.449Z,57.20
2019-03-20T20:26:44.218Z,57.10
2019-03-20T20:29:13.552Z,57.20
2019-03-20T20:31:42.318Z,57.10
2019-03-20T20:34:11.190Z,57.10
2019-03-20T20:36:40.047Z,57.00
2019-03-20T20:39:08.833Z,57.00
2019-03-20T20:41:37.757Z,57.00
2019-03-20T20:44:06.860Z,56.80
2019-03-20T20:46:35.727Z,57.50
2019-03-20T20:49:04.484Z,56.80
2019-03-20T20:51:33.227Z,57.00
2019-03-20T20:54:02.020Z,56.90
2019-03-20T20:56:30.779Z,57.00
2019-03-20T20:58:59.533Z,57.00
2019-03-20T21:01:30.226Z,57.00
2019-03-20T21:03:58.939Z,56.90
2019-03-20T21:06:27.703Z,57.00
2019-03-20T21:08:56.527Z,57.00
2019-03-20T21:11:25.273Z,57.00
2019-03-20T21:13:54.053Z,57.00
2019-03-20T21:16:23.416Z,57.00
2019-03-20T21:19:32.121Z,57.00
2019-03-20T21:22:42.309Z,57.10
2019-03-20T21:25:11.920Z,57.10
2019-03-20T21:28:23.562Z,57.10
2019-03-20T21:31:22.507Z,57.10
2019-03-20T21:34:31.724Z,57.10
2019-03-20T21:38:07.586Z,57.10
2019-03-20T21:41:07.718Z,57.00
2019-03-20T21:44:15.201Z,56.90
2019-03-20T21:47:07.919Z,57.00
2019-03-20T21:49:37.217Z,56.90
2019-03-20T21:52:06.491Z,56.90
2019-03-20T21:55:28.000Z,56.90
2019-03-20T21:58:36.980Z,56.90
2019-03-20T22:01:36.287Z,56.90
2019-03-20T22:04:05.691Z,57.00
2019-03-20T22:07:11.072Z,57.00
2019-03-20T22:10:26.226Z,57.70
2019-03-20T22:13:18.645Z,57.00
2019-03-20T22:16:18.807Z,57.00
2019-03-20T22:21:59.056Z,57.10
2019-03-20T22:25:06.379Z,57.00
2019-03-20T22:28:14.149Z,57.00
2019-03-20T22:30:43.613Z,57.00
2019-03-20T22:33:48.719Z,57.00
2019-03-20T22:36:21.466Z,57.10
2019-03-20T22:39:49.859Z,57.00
2019-03-20T22:42:36.491Z,56.80
2019-03-20T22:45:45.924Z,56.80
2019-03-20T22:48:58.328Z,56.80
2019-03-20T22:52:02.476Z,56.90
2019-03-20T22:54:55.587Z,56.90
2019-03-20T22:57:36.935Z,56.90
2019-03-20T23:00:06.993Z,56.90
2019-03-20T23:03:02.649Z,56.90
2019-03-20T23:05:31.943Z,57.00
2019-03-20T23:08:01.246Z,57.00
2019-03-20T23:10:31.087Z,56.90
2019-03-20T23:13:00.340Z,57.00
2019-03-20T23:15:29.601Z,57.00
2019-03-20T23:17:58.944Z,57.00
2019-03-20T23:20:28.324Z,56.80
2019-03-20T23:22:57.606Z,57.00
2019-03-20T23:25:26.875Z,57.10
2019-03-20T23:27:56.157Z,57.00
2019-03-20T23:30:26.067Z,57.00
2019-03-20T23:32:55.522Z,57.00
2019-03-20T23:35:24.803Z,57.20
2019-03-20T23:37:54.105Z,57.00
2019-03-20T23:40:23.411Z,56.80
2019-03-20T23:42:53.066Z,56.60
2019-03-20T23:45:22.345Z,56.60
2019-03-20T23:48:25.831Z,56.60
2019-03-20T23:50:58.470Z,56.80
2019-03-20T23:53:27.732Z,56.80
2019-03-20T23:55:57.023Z,56.90
2019-03-20T23:58:26.310Z,56.80
